Time;durP1;ratioP1;P1;durP2;ratioP2;P2;SDS_P1;SDS_P2;PMS_P1;PMS_P2;Temp;Humidity;BMP_temperature;BMP_pressure;BME280_temperature;BME280_humidity;BME280_pressure;Samples;Min_cycle;Max_cycle;Signal;HPM_P1;HPM_P2
2022/11/14 00:00:24;;;;;;;5.45;4.18;;;10.30;86.00;;;;;;5030435;28;20485;-58
2022/11/14 00:02:50;;;;;;;5.38;3.55;;;10.20;85.90;;;;;;5034238;28;20018;-57
2022/11/14 00:05:16;;;;;;;4.30;3.78;;;10.20;86.00;;;;;;5034762;28;20025;-57
2022/11/14 00:07:42;;;;;;;6.45;4.22;;;10.20;86.00;;;;;;5029188;28;20018;-57
2022/11/14 00:10:08;;;;;;;5.63;3.90;;;10.20;85.90;;;;;;5032056;28;20028;-57
2022/11/14 00:12:33;;;;;;;3.80;3.33;;;10.20;85.80;;;;;;5034067;28;20473;-57
2022/11/14 00:14:59;;;;;;;5.25;3.72;;;10.20;85.90;;;;;;5034051;28;20120;-56
2022/11/14 00:17:25;;;;;;;4.88;3.72;;;10.20;85.90;;;;;;5035987;28;20122;-56
2022/11/14 00:19:50;;;;;;;4.22;3.40;;;10.20;85.80;;;;;;5033416;28;20026;-57
2022/11/14 00:22:16;;;;;;;4.70;3.33;;;10.10;85.80;;;;;;5040974;28;20391;-57
2022/11/14 00:24:42;;;;;;;6.07;4.05;;;10.10;85.80;;;;;;5039000;28;20021;-56
2022/11/14 00:27:07;;;;;;;4.57;3.33;;;10.20;85.80;;;;;;5033641;28;20487;-55
2022/11/14 00:29:33;;;;;;;4.53;3.75;;;10.10;85.80;;;;;;5035044;28;20025;-58
2022/11/14 00:31:58;;;;;;;4.35;3.40;;;10.10;85.80;;;;;;5033917;28;20441;-56
2022/11/14 00:34:24;;;;;;;4.70;3.20;;;10.10;85.60;;;;;;5033840;28;20038;-57
2022/11/14 00:36:50;;;;;;;3.58;3.28;;;10.10;85.60;;;;;;5032407;28;20480;-56
2022/11/14 00:39:15;;;;;;;4.60;3.60;;;10.10;85.70;;;;;;5032249;28;20384;-57
2022/11/14 00:41:41;;;;;;;4.07;3.25;;;10.10;85.80;;;;;;5039785;28;20029;-59
2022/11/14 00:44:07;;;;;;;4.72;3.60;;;10.10;85.70;;;;;;5031761;28;20017;-57
2022/11/14 00:46:34;;;;;;;5.15;3.67;;;10.10;85.60;;;;;;5032900;28;20030;-57
2022/11/14 00:49:00;;;;;;;4.75;3.72;;;10.00;85.70;;;;;;5032668;28;20108;-56
2022/11/14 00:51:26;;;;;;;4.05;3.33;;;10.00;85.60;;;;;;5032125;28;20104;-57
2022/11/14 00:53:51;;;;;;;4.85;3.50;;;10.00;85.60;;;;;;5032263;28;20036;-57
2022/11/14 00:56:17;;;;;;;4.65;3.33;;;10.00;85.60;;;;;;5031962;28;20455;-57
2022/11/14 00:58:42;;;;;;;4.78;3.55;;;10.00;85.60;;;;;;5030275;28;20033;-57
2022/11/14 01:01:08;;;;;;;3.80;3.10;;;10.00;85.50;;;;;;5032895;28;20118;-57
2022/11/14 01:03:34;;;;;;;4.28;3.28;;;10.00;85.50;;;;;;5031785;28;20116;-57
2022/11/14 01:06:05;;;;;;;3.90;3.13;;;10.00;85.50;;;;;;5032033;28;20499;-57
2022/11/14 01:08:31;;;;;;;4.90;3.30;;;10.00;85.60;;;;;;5033866;28;20115;-57
2022/11/14 01:10:57;;;;;;;4.32;3.28;;;9.90;85.30;;;;;;5032115;28;20100;-56
2022/11/14 01:13:23;;;;;;;3.85;3.30;;;10.00;85.30;;;;;;5030304;28;20095;-58
2022/11/14 01:15:49;;;;;;;4.70;3.45;;;10.00;85.30;;;;;;5040140;28;20146;-56
2022/11/14 01:18:20;;;;;;;4.82;3.72;;;9.90;85.20;;;;;;5045325;28;20382;-56
2022/11/14 01:20:47;;;;;;;4.97;3.23;;;9.90;85.10;;;;;;5051968;28;20090;-56
2022/11/14 01:23:15;;;;;;;3.95;3.13;;;9.90;85.10;;;;;;5046559;28;20033;-57
2022/11/14 01:25:42;;;;;;;4.40;3.20;;;9.90;85.00;;;;;;5044168;28;20458;-57
2022/11/14 01:28:13;;;;;;;4.53;3.55;;;9.90;84.90;;;;;;5032155;28;20384;-57
2022/11/14 01:30:39;;;;;;;4.05;3.42;;;9.80;84.90;;;;;;5031760;28;20083;-56
2022/11/14 01:33:05;;;;;;;4.55;3.38;;;9.80;84.90;;;;;;5044577;28;20115;-55
2022/11/14 01:35:35;;;;;;;4.18;3.35;;;9.80;84.90;;;;;;5040689;28;20032;-57
2022/11/14 01:38:02;;;;;;;4.78;3.60;;;9.80;84.80;;;;;;5046011;28;20039;-58
2022/11/14 01:40:28;;;;;;;3.80;3.00;;;9.80;84.90;;;;;;5050331;28;20369;-57
2022/11/14 01:43:15;;;;;;;3.67;3.28;;;9.70;85.00;;;;;;5040014;28;20075;-57
2022/11/14 01:46:02;;;;;;;5.65;3.83;;;9.70;84.80;;;;;;5036336;28;20033;-56
2022/11/14 01:48:39;;;;;;;4.90;3.72;;;9.70;84.70;;;;;;5040322;28;20025;-56
2022/11/14 01:51:14;;;;;;;5.00;3.67;;;9.70;84.90;;;;;;5049172;28;20079;-57
2022/11/14 01:53:41;;;;;;;5.63;3.92;;;9.70;85.00;;;;;;5038609;28;20035;-57
2022/11/14 01:56:10;;;;;;;4.60;3.40;;;9.60;84.90;;;;;;5044396;28;20066;-57
2022/11/14 01:58:40;;;;;;;4.03;3.30;;;9.60;84.90;;;;;;5044020;28;20034;-56
2022/11/14 02:01:06;;;;;;;4.73;3.23;;;9.60;84.90;;;;;;5034896;28;20037;-56
2022/11/14 02:03:37;;;;;;;3.80;3.20;;;9.60;84.80;;;;;;5040139;28;20283;-57
2022/11/14 02:06:05;;;;;;;3.80;2.80;;;9.60;84.80;;;;;;5034726;28;20357;-56
2022/11/14 02:08:33;;;;;;;3.97;3.20;;;9.60;84.80;;;;;;5034646;28;20028;-57
2022/11/14 02:10:58;;;;;;;5.13;3.60;;;9.60;84.70;;;;;;5041665;28;20017;-57
2022/11/14 02:13:24;;;;;;;4.78;3.60;;;9.60;84.70;;;;;;5034936;28;20179;-56
2022/11/14 02:15:50;;;;;;;4.82;3.35;;;9.60;84.80;;;;;;5039451;28;20041;-56
2022/11/14 02:18:16;;;;;;;4.18;3.13;;;9.60;84.80;;;;;;5033602;28;20029;-56
2022/11/14 02:20:42;;;;;;;2.85;2.65;;;9.60;84.70;;;;;;5031465;28;20044;-57
2022/11/14 02:23:11;;;;;;;3.17;2.85;;;9.60;84.80;;;;;;5035332;28;20457;-56
2022/11/14 02:25:38;;;;;;;4.72;2.95;;;9.60;84.80;;;;;;5050377;28;20525;-57
2022/11/14 02:28:06;;;;;;;3.75;2.88;;;9.60;84.70;;;;;;5034847;28;20120;-57
2022/11/14 02:30:32;;;;;;;3.47;2.92;;;9.60;84.80;;;;;;5035461;28;20110;-56
2022/11/14 02:32:58;;;;;;;3.70;3.00;;;9.60;84.70;;;;;;5034727;28;20053;-56
2022/11/14 02:35:24;;;;;;;3.97;3.10;;;9.60;84.60;;;;;;5035864;28;20488;-57
2022/11/14 02:37:49;;;;;;;4.32;2.75;;;9.60;84.40;;;;;;5050274;28;20026;-56
2022/11/14 02:40:15;;;;;;;4.40;2.90;;;9.60;84.40;;;;;;5038428;28;20029;-57
2022/11/14 02:42:41;;;;;;;3.55;3.08;;;9.60;84.30;;;;;;5037005;28;20049;-57
2022/11/14 02:45:07;;;;;;;5.05;3.17;;;9.60;84.20;;;;;;5041051;28;20097;-57
2022/11/14 02:47:33;;;;;;;4.38;3.35;;;9.60;84.10;;;;;;5031471;28;20096;-57
2022/11/14 02:49:58;;;;;;;4.68;3.22;;;9.60;84.20;;;;;;5053885;28;20096;-57
2022/11/14 02:52:24;;;;;;;3.38;2.90;;;9.60;84.10;;;;;;5042373;28;20040;-57
2022/11/14 02:54:49;;;;;;;3.83;3.05;;;9.50;84.10;;;;;;5044504;28;20131;-56
2022/11/14 02:57:15;;;;;;;3.80;3.40;;;9.50;84.20;;;;;;5040979;28;20029;-57
2022/11/14 02:59:41;;;;;;;4.15;3.28;;;9.50;84.20;;;;;;5042145;28;20067;-56
2022/11/14 03:02:06;;;;;;;4.35;2.95;;;9.50;84.20;;;;;;5035983;28;20034;-56
2022/11/14 03:04:32;;;;;;;3.85;3.15;;;9.50;84.30;;;;;;5037099;28;20025;-57
2022/11/14 03:06:57;;;;;;;3.55;2.95;;;9.50;84.20;;;;;;5027492;28;20028;-57
2022/11/14 03:09:23;;;;;;;4.53;3.30;;;9.50;84.20;;;;;;5032090;28;20488;-56
2022/11/14 03:11:49;;;;;;;4.13;3.10;;;9.40;84.20;;;;;;5034829;28;20462;-56
2022/11/14 03:14:14;;;;;;;4.85;3.15;;;9.40;84.30;;;;;;5033769;28;20056;-56
2022/11/14 03:16:40;;;;;;;4.18;3.15;;;9.40;84.30;;;;;;5032247;28;20377;-57
2022/11/14 03:19:06;;;;;;;3.70;2.92;;;9.40;84.50;;;;;;5033943;28;20037;-57
2022/11/14 03:21:31;;;;;;;3.88;3.10;;;9.40;84.50;;;;;;5035268;28;20021;-57
2022/11/14 03:23:57;;;;;;;3.95;3.00;;;9.40;84.50;;;;;;5033679;28;20038;-57
2022/11/14 03:26:22;;;;;;;3.25;2.95;;;9.40;84.60;;;;;;5035195;28;20396;-57
2022/11/14 03:28:48;;;;;;;4.43;2.78;;;9.40;84.50;;;;;;5045348;28;20029;-57
2022/11/14 03:31:14;;;;;;;3.03;2.65;;;9.40;84.70;;;;;;5043192;28;20449;-57
2022/11/14 03:33:40;;;;;;;3.85;2.97;;;9.30;84.60;;;;;;5039084;28;20438;-57
2022/11/14 03:36:07;;;;;;;4.22;3.25;;;9.30;84.50;;;;;;5036751;28;20021;-57
2022/11/14 03:38:34;;;;;;;3.38;3.08;;;9.30;84.50;;;;;;5041252;28;20063;-57
2022/11/14 03:41:00;;;;;;;6.18;3.28;;;9.30;84.40;;;;;;5033631;28;20032;-56
2022/11/14 03:43:28;;;;;;;2.90;2.65;;;9.30;84.50;;;;;;5033800;28;20033;-56
2022/11/14 03:45:57;;;;;;;3.95;3.00;;;9.20;84.50;;;;;;5033889;28;20033;-56
2022/11/14 03:48:23;;;;;;;3.55;2.85;;;9.20;84.40;;;;;;5033533;28;20499;-56
2022/11/14 03:50:49;;;;;;;3.97;2.92;;;9.20;84.40;;;;;;5033031;28;20029;-56
2022/11/14 03:53:14;;;;;;;2.80;2.50;;;9.20;84.70;;;;;;5033413;28;20025;-58
2022/11/14 03:55:42;;;;;;;4.82;3.28;;;9.20;84.50;;;;;;5032832;28;20057;-57
2022/11/14 03:58:08;;;;;;;4.50;2.85;;;9.20;84.40;;;;;;5033482;28;20041;-57
2022/11/14 04:00:33;;;;;;;5.38;2.90;;;9.20;84.30;;;;;;5032582;28;20033;-57
2022/11/14 04:02:59;;;;;;;3.15;2.63;;;9.20;84.30;;;;;;5046518;28;20029;-57
2022/11/14 04:05:25;;;;;;;3.05;2.72;;;9.10;84.30;;;;;;5035867;28;20436;-57
2022/11/14 04:07:50;;;;;;;3.20;2.90;;;9.10;84.30;;;;;;5034557;28;20051;-56
2022/11/14 04:10:17;;;;;;;3.13;2.72;;;9.10;84.30;;;;;;5036495;28;20033;-57
2022/11/14 04:12:50;;;;;;;4.13;3.00;;;9.10;84.30;;;;;;5046397;28;20447;-56
2022/11/14 04:15:17;;;;;;;4.00;3.00;;;9.10;84.30;;;;;;5049180;28;20049;-57
2022/11/14 04:17:43;;;;;;;4.43;3.15;;;9.00;84.20;;;;;;5041824;28;20116;-58
2022/11/14 04:20:10;;;;;;;4.22;2.90;;;9.10;84.20;;;;;;5034049;28;20033;-57
2022/11/14 04:22:35;;;;;;;3.90;3.20;;;9.00;84.30;;;;;;5047964;28;20060;-56
2022/11/14 04:25:01;;;;;;;3.55;2.97;;;9.00;84.20;;;;;;5039780;28;20122;-57
2022/11/14 04:27:26;;;;;;;4.25;2.65;;;9.00;84.20;;;;;;5037539;28;20052;-56
2022/11/14 04:29:52;;;;;;;4.35;3.20;;;9.00;84.20;;;;;;5044735;28;20029;-56
2022/11/14 04:32:18;;;;;;;4.13;2.72;;;8.90;84.10;;;;;;5044990;28;20021;-56
2022/11/14 04:34:43;;;;;;;4.85;2.92;;;9.00;84.10;;;;;;5035140;28;20040;-57
2022/11/14 04:37:09;;;;;;;3.30;2.80;;;9.00;84.10;;;;;;5039096;28;20037;-57
2022/11/14 04:39:35;;;;;;;3.42;2.65;;;8.90;84.00;;;;;;5035681;28;20112;-56
2022/11/14 04:42:00;;;;;;;3.63;3.10;;;8.90;83.90;;;;;;5047575;28;20033;-58
2022/11/14 04:44:26;;;;;;;3.47;2.75;;;8.90;84.00;;;;;;5040539;28;20037;-57
2022/11/14 04:46:52;;;;;;;4.35;3.42;;;8.80;83.80;;;;;;5048209;28;20495;-56
2022/11/14 04:49:17;;;;;;;6.93;3.35;;;8.80;83.80;;;;;;5037155;28;20037;-57
2022/11/14 04:51:43;;;;;;;3.45;2.75;;;8.80;83.90;;;;;;5051882;28;20070;-58
2022/11/14 04:54:08;;;;;;;3.53;2.92;;;8.80;84.00;;;;;;5047802;28;20025;-57
2022/11/14 04:56:34;;;;;;;3.78;3.20;;;8.80;84.20;;;;;;5037418;28;20485;-56
2022/11/14 04:59:00;;;;;;;3.70;2.97;;;8.80;84.20;;;;;;5037753;28;20469;-57
2022/11/14 05:01:25;;;;;;;3.65;2.90;;;8.80;84.30;;;;;;5050887;28;20025;-57
2022/11/14 05:03:51;;;;;;;3.97;3.20;;;8.80;84.30;;;;;;5045066;28;20084;-56
2022/11/14 05:06:16;;;;;;;3.45;2.72;;;8.80;84.30;;;;;;5032627;28;20079;-57
2022/11/14 05:08:43;;;;;;;3.25;2.75;;;8.80;84.30;;;;;;5036498;28;20480;-57
2022/11/14 05:11:17;;;;;;;3.78;2.90;;;8.80;84.40;;;;;;5038785;28;20017;-57
2022/11/14 05:13:42;;;;;;;6.40;2.85;;;8.80;84.40;;;;;;5036873;28;20041;-57
2022/11/14 05:16:08;;;;;;;3.33;2.83;;;8.80;84.40;;;;;;5051033;28;20147;-56
2022/11/14 05:18:34;;;;;;;3.65;2.60;;;8.80;84.40;;;;;;5038218;28;20029;-56
2022/11/14 05:21:00;;;;;;;4.22;2.85;;;8.80;84.40;;;;;;5043816;28;20039;-57
2022/11/14 05:23:26;;;;;;;3.05;2.75;;;8.80;84.40;;;;;;5039849;28;20033;-57
2022/11/14 05:26:03;;;;;;;3.83;2.95;;;8.80;84.30;;;;;;5044805;28;20083;-57
2022/11/14 05:28:32;;;;;;;3.83;2.63;;;8.80;84.30;;;;;;5036588;28;20037;-57
2022/11/14 05:31:09;;;;;;;3.53;3.20;;;8.80;84.40;;;;;;5051438;28;20021;-57
2022/11/14 05:33:35;;;;;;;3.20;2.70;;;8.90;84.20;;;;;;5038503;28;20053;-57
2022/11/14 05:36:15;;;;;;;4.35;2.90;;;8.90;84.30;;;;;;5044422;28;20103;-57
2022/11/14 05:38:41;;;;;;;3.53;2.65;;;8.90;84.20;;;;;;5037726;28;20060;-56
2022/11/14 05:41:09;;;;;;;3.22;2.90;;;9.00;84.40;;;;;;5032026;28;20067;-57
2022/11/14 05:43:35;;;;;;;4.18;2.72;;;9.00;84.30;;;;;;5045064;28;20029;-57
2022/11/14 05:46:02;;;;;;;3.92;3.10;;;9.10;84.20;;;;;;5045659;28;20025;-57
2022/11/14 05:48:28;;;;;;;4.85;3.17;;;9.10;84.10;;;;;;5034235;28;20104;-57
2022/11/14 05:50:58;;;;;;;4.15;3.15;;;9.10;84.00;;;;;;5037657;28;20033;-57
2022/11/14 05:53:26;;;;;;;2.85;2.65;;;9.20;84.00;;;;;;5030757;28;20021;-56
2022/11/14 05:55:52;;;;;;;3.22;2.90;;;9.20;83.90;;;;;;5045382;28;20021;-57
2022/11/14 05:58:18;;;;;;;3.72;2.95;;;9.20;83.70;;;;;;5045942;28;20043;-57
2022/11/14 06:00:44;;;;;;;4.47;3.20;;;9.20;83.60;;;;;;5038004;28;20033;-57
2022/11/14 06:03:09;;;;;;;4.88;2.83;;;9.20;83.50;;;;;;5043514;28;20025;-57
2022/11/14 06:05:35;;;;;;;5.00;3.20;;;9.20;83.50;;;;;;5035189;28;20080;-59
2022/11/14 06:08:02;;;;;;;4.95;3.20;;;9.30;83.50;;;;;;5035786;28;20104;-56
2022/11/14 06:10:28;;;;;;;4.55;2.92;;;9.30;83.50;;;;;;5033339;28;20236;-56
2022/11/14 06:12:54;;;;;;;5.05;3.25;;;9.30;83.40;;;;;;5026920;28;20060;-57
2022/11/14 06:15:20;;;;;;;3.47;2.95;;;9.30;83.30;;;;;;5039778;28;20029;-56
2022/11/14 06:17:45;;;;;;;3.75;3.08;;;9.40;83.30;;;;;;5029735;28;20044;-56
2022/11/14 06:20:12;;;;;;;3.67;2.80;;;9.40;83.10;;;;;;5031970;28;20090;-57
2022/11/14 06:22:41;;;;;;;3.13;2.72;;;9.40;82.80;;;;;;5028468;28;20030;-57
2022/11/14 06:25:07;;;;;;;4.15;3.10;;;9.50;82.80;;;;;;5030675;28;20080;-57
2022/11/14 06:27:33;;;;;;;4.03;2.55;;;9.50;82.70;;;;;;5030806;28;20021;-57
2022/11/14 06:29:58;;;;;;;3.20;2.90;;;9.40;82.50;;;;;;5021075;28;20408;-57
2022/11/14 06:32:24;;;;;;;4.68;3.17;;;9.50;82.30;;;;;;5019126;28;20029;-57
2022/11/14 06:34:49;;;;;;;3.33;2.65;;;9.50;82.10;;;;;;5027615;28;20485;-57
2022/11/14 06:37:15;;;;;;;3.28;2.72;;;9.40;82.00;;;;;;5025535;28;20120;-56
2022/11/14 06:39:41;;;;;;;3.08;2.70;;;9.40;81.90;;;;;;5033772;28;20489;-57
2022/11/14 06:42:06;;;;;;;3.47;2.75;;;9.40;81.60;;;;;;5027022;28;20037;-59
2022/11/14 06:44:32;;;;;;;3.00;2.70;;;9.40;81.60;;;;;;5020784;28;20460;-57
2022/11/14 06:46:58;;;;;;;4.40;2.72;;;9.40;81.40;;;;;;5025932;28;20535;-58
2022/11/14 06:49:23;;;;;;;3.05;2.50;;;9.40;81.40;;;;;;5021966;28;20033;-57
2022/11/14 06:51:50;;;;;;;4.50;2.80;;;9.30;81.30;;;;;;5020723;28;20396;-57
2022/11/14 06:54:16;;;;;;;3.42;2.60;;;9.40;81.50;;;;;;5025796;28;20084;-57
2022/11/14 06:56:42;;;;;;;2.97;2.58;;;9.40;81.40;;;;;;5026661;28;20060;-57
2022/11/14 06:59:07;;;;;;;2.85;2.50;;;9.30;81.20;;;;;;5013447;28;20036;-58
2022/11/14 07:01:33;;;;;;;4.80;2.80;;;9.30;81.10;;;;;;5021029;28;20125;-58
2022/11/14 07:04:01;;;;;;;3.22;2.65;;;9.30;81.20;;;;;;5018982;28;20057;-59
2022/11/14 07:06:28;;;;;;;3.75;2.80;;;9.30;81.00;;;;;;5019903;28;20412;-59
2022/11/14 07:08:55;;;;;;;3.53;3.00;;;9.30;81.00;;;;;;5018388;28;20041;-59
2022/11/14 07:11:25;;;;;;;3.47;2.67;;;9.30;81.00;;;;;;5017505;28;20025;-58
2022/11/14 07:13:53;;;;;;;2.80;2.53;;;9.30;81.10;;;;;;5026895;28;20141;-58
2022/11/14 07:16:22;;;;;;;3.47;3.03;;;9.30;81.10;;;;;;5024210;28;20032;-58
2022/11/14 07:18:47;;;;;;;4.53;3.10;;;9.20;81.10;;;;;;5023412;28;20021;-56
2022/11/14 07:21:13;;;;;;;3.25;2.80;;;9.20;81.10;;;;;;5023260;28;20033;-58
2022/11/14 07:23:40;;;;;;;3.05;2.75;;;9.20;81.20;;;;;;5022299;28;20040;-57
2022/11/14 07:26:08;;;;;;;4.32;2.70;;;9.20;81.30;;;;;;5028298;28;20068;-59
2022/11/14 07:28:39;;;;;;;3.88;3.05;;;9.20;81.20;;;;;;5019909;28;20407;-58
2022/11/14 07:31:16;;;;;;;3.08;2.78;;;9.20;81.20;;;;;;5021978;28;20033;-57
2022/11/14 07:33:43;;;;;;;3.38;2.90;;;9.20;81.10;;;;;;5024205;28;20547;-58
2022/11/14 07:36:10;;;;;;;3.75;2.50;;;9.20;81.30;;;;;;5022958;28;20025;-56
2022/11/14 07:38:37;;;;;;;3.58;2.63;;;9.20;81.50;;;;;;5022162;28;20037;-58
2022/11/14 07:41:06;;;;;;;2.78;2.58;;;9.20;81.40;;;;;;5024655;28;20044;-59
2022/11/14 07:43:32;;;;;;;4.75;2.60;;;9.20;81.20;;;;;;5012846;28;20038;-57
2022/11/14 07:46:03;;;;;;;3.38;2.72;;;9.20;81.00;;;;;;5016281;28;20496;-58
2022/11/14 07:48:30;;;;;;;3.50;2.47;;;9.10;80.90;;;;;;5011516;28;20036;-57
2022/11/14 07:51:00;;;;;;;2.92;2.60;;;9.10;81.00;;;;;;5006758;28;20034;-58
2022/11/14 07:53:27;;;;;;;2.60;2.40;;;9.10;81.00;;;;;;5012697;28;20041;-55
2022/11/14 07:55:52;;;;;;;3.00;2.42;;;9.20;81.10;;;;;;5012062;28;20048;-59
2022/11/14 07:58:18;;;;;;;2.72;2.45;;;9.20;81.10;;;;;;5003057;28;20034;-58
2022/11/14 08:00:44;;;;;;;2.78;2.33;;;9.20;81.00;;;;;;5005818;28;20045;-55
2022/11/14 08:03:10;;;;;;;4.18;2.58;;;9.20;80.80;;;;;;5003688;28;20037;-57
2022/11/14 08:05:36;;;;;;;3.00;2.17;;;9.20;80.80;;;;;;5011503;28;20067;-57
2022/11/14 08:08:02;;;;;;;3.67;2.50;;;9.20;80.80;;;;;;5013546;28;20056;-58
2022/11/14 08:10:28;;;;;;;2.50;2.30;;;9.20;80.70;;;;;;5004886;28;20125;-57
2022/11/14 08:13:02;;;;;;;2.95;2.45;;;9.20;80.50;;;;;;5006964;28;20025;-57
2022/11/14 08:15:28;;;;;;;2.72;2.45;;;9.20;80.50;;;;;;5012236;28;20045;-57
2022/11/14 08:18:00;;;;;;;2.50;2.08;;;9.20;80.50;;;;;;4996330;28;20062;-58
2022/11/14 08:20:27;;;;;;;2.33;2.00;;;9.30;80.50;;;;;;5001087;28;20030;-57
2022/11/14 08:22:54;;;;;;;3.97;2.28;;;9.30;81.10;;;;;;5004548;28;20025;-58
2022/11/14 08:25:20;;;;;;;2.30;2.10;;;9.30;80.40;;;;;;5008159;28;20029;-58
2022/11/14 08:27:45;;;;;;;2.58;2.08;;;9.30;80.40;;;;;;5006259;28;20038;-59
2022/11/14 08:30:11;;;;;;;2.80;2.55;;;9.30;80.30;;;;;;5007011;28;20056;-58
2022/11/14 08:32:37;;;;;;;2.47;2.28;;;9.40;80.40;;;;;;5007284;28;20029;-58
2022/11/14 08:35:03;;;;;;;2.75;2.40;;;9.40;80.30;;;;;;5003620;28;20041;-58
2022/11/14 08:37:29;;;;;;;2.75;2.30;;;9.40;80.30;;;;;;5002195;28;20096;-59
2022/11/14 08:39:54;;;;;;;3.95;2.72;;;9.40;80.20;;;;;;5007495;28;20037;-58
2022/11/14 08:42:20;;;;;;;2.80;2.50;;;9.40;80.20;;;;;;5006424;28;20401;-59
2022/11/14 08:44:45;;;;;;;2.78;2.50;;;9.50;80.20;;;;;;4998903;28;20123;-58
2022/11/14 08:47:11;;;;;;;2.60;2.40;;;9.50;80.20;;;;;;5002466;28;20040;-59
2022/11/14 08:49:37;;;;;;;2.65;2.45;;;9.50;80.30;;;;;;5002285;28;20041;-59
2022/11/14 08:52:02;;;;;;;2.50;2.30;;;9.50;80.30;;;;;;5000697;28;20124;-59
2022/11/14 08:54:28;;;;;;;2.88;2.58;;;9.50;80.20;;;;;;5001572;28;20029;-58
2022/11/14 08:56:54;;;;;;;3.15;2.50;;;9.60;80.20;;;;;;4994740;28;20041;-58
2022/11/14 08:59:19;;;;;;;2.22;2.05;;;9.60;80.30;;;;;;4990512;28;20044;-57
2022/11/14 09:01:45;;;;;;;2.85;2.60;;;9.50;80.10;;;;;;4996682;28;20076;-55
2022/11/14 09:04:10;;;;;;;3.65;2.47;;;9.60;80.10;;;;;;4997449;28;20044;-55
2022/11/14 09:06:36;;;;;;;3.13;2.47;;;9.60;80.10;;;;;;5013603;28;20057;-56
2022/11/14 09:09:02;;;;;;;3.05;2.45;;;9.60;80.10;;;;;;5009015;28;20780;-58
2022/11/14 09:11:27;;;;;;;2.80;2.53;;;9.60;79.90;;;;;;4999732;28;20034;-57
2022/11/14 09:13:53;;;;;;;2.75;2.47;;;9.60;79.90;;;;;;5001066;28;20129;-56
2022/11/14 09:16:19;;;;;;;3.00;2.70;;;9.60;79.90;;;;;;4999227;28;20057;-56
2022/11/14 09:18:44;;;;;;;3.67;2.38;;;9.60;80.00;;;;;;5009823;28;20033;-56
2022/11/14 09:21:11;;;;;;;3.40;2.58;;;9.70;79.90;;;;;;5001931;28;20159;-57
2022/11/14 09:23:37;;;;;;;2.72;2.45;;;9.70;79.80;;;;;;5000760;28;20033;-57
2022/11/14 09:26:07;;;;;;;2.50;2.30;;;9.60;79.80;;;;;;5000508;28;20107;-57
2022/11/14 09:28:34;;;;;;;4.57;2.63;;;9.70;79.80;;;;;;5005459;28;20065;-56
2022/11/14 09:31:06;;;;;;;3.00;2.22;;;9.70;79.80;;;;;;5006090;28;20022;-57
2022/11/14 09:33:33;;;;;;;2.72;2.30;;;9.70;79.80;;;;;;5002749;28;20037;-56
2022/11/14 09:36:04;;;;;;;2.15;1.90;;;9.70;79.80;;;;;;5001191;28;20069;-58
2022/11/14 09:38:30;;;;;;;1.98;1.80;;;9.70;79.70;;;;;;5004006;28;20943;-58
2022/11/14 09:41:08;;;;;;;2.55;2.17;;;9.70;79.50;;;;;;5002950;28;20366;-59
2022/11/14 09:43:54;;;;;;;2.53;2.22;;;9.70;79.40;;;;;;5002037;28;20044;-59
2022/11/14 09:46:24;;;;;;;1.92;1.73;;;9.70;79.30;;;;;;4998152;28;20029;-59
2022/11/14 09:48:51;;;;;;;2.42;2.10;;;9.70;79.40;;;;;;5008737;28;20403;-58
2022/11/14 09:51:25;;;;;;;2.50;2.15;;;9.80;79.20;;;;;;5003367;28;20040;-59
2022/11/14 09:54:00;;;;;;;3.08;2.15;;;9.80;79.10;;;;;;5001665;28;20110;-62
2022/11/14 09:56:26;;;;;;;2.67;2.47;;;9.80;79.00;;;;;;4998171;28;20109;-59
2022/11/14 09:58:55;;;;;;;2.40;2.10;;;9.80;78.90;;;;;;4990609;28;20047;-58
2022/11/14 10:01:44;;;;;;;2.70;2.30;;;9.80;78.80;;;;;;5004092;28;20037;-58
2022/11/14 10:04:18;;;;;;;2.92;2.00;;;9.80;78.60;;;;;;4997007;28;20708;-57
2022/11/14 10:06:49;;;;;;;3.30;2.30;;;9.90;78.60;;;;;;5000854;28;20044;-57
2022/11/14 10:09:38;;;;;;;3.40;2.40;;;9.90;78.50;;;;;;5003803;28;20033;-57
2022/11/14 10:12:30;;;;;;;3.83;2.40;;;9.90;78.40;;;;;;5004147;28;20033;-58
2022/11/14 10:14:59;;;;;;;1.90;1.80;;;9.90;78.20;;;;;;5003370;28;20062;-56
2022/11/14 10:17:43;;;;;;;2.30;2.10;;;9.90;78.20;;;;;;5005002;28;20041;-59
2022/11/14 10:20:27;;;;;;;2.97;2.20;;;9.90;78.10;;;;;;5001230;28;20037;-59
2022/11/14 10:23:17;;;;;;;2.25;2.05;;;9.90;78.10;;;;;;5004502;28;20029;-59
2022/11/14 10:26:03;;;;;;;3.20;1.95;;;9.90;77.90;;;;;;4999070;28;20382;-58
2022/11/14 10:28:32;;;;;;;1.92;1.80;;;10.00;77.90;;;;;;5003506;28;20088;-59
2022/11/14 10:31:23;;;;;;;1.83;1.70;;;10.00;77.70;;;;;;5012286;28;20246;-58
2022/11/14 10:34:05;;;;;;;2.03;1.83;;;10.00;77.70;;;;;;5000960;28;20033;-59
2022/11/14 10:36:59;;;;;;;4.28;2.10;;;10.00;77.50;;;;;;5003785;28;20553;-60
2022/11/14 10:39:40;;;;;;;1.60;1.50;;;10.10;77.30;;;;;;5005152;28;20152;-60
2022/11/14 10:42:28;;;;;;;2.67;1.73;;;10.10;77.50;;;;;;5014357;28;20038;-59
2022/11/14 10:45:10;;;;;;;2.15;1.77;;;10.10;77.20;;;;;;5005673;28;20029;-60
2022/11/14 10:47:42;;;;;;;1.92;1.60;;;10.10;77.20;;;;;;5005254;28;21602;-58
2022/11/14 10:50:41;;;;;;;1.98;1.83;;;10.10;77.10;;;;;;5003426;28;20827;-60
2022/11/14 10:53:20;;;;;;;1.92;1.70;;;10.10;76.90;;;;;;4986585;28;20487;-59
2022/11/14 10:55:49;;;;;;;2.40;1.92;;;10.10;77.10;;;;;;5005473;28;20525;-60
2022/11/14 10:58:15;;;;;;;2.22;2.03;;;10.20;77.00;;;;;;4998999;28;20116;-58
2022/11/14 11:00:41;;;;;;;2.25;2.05;;;10.10;76.80;;;;;;5001490;28;20030;-58
2022/11/14 11:03:06;;;;;;;5.03;3.53;;;10.20;76.70;;;;;;4998058;28;20037;-60
2022/11/14 11:05:48;;;;;;;3.65;2.80;;;10.20;76.60;;;;;;5002775;28;20029;-59
2022/11/14 11:13:56;;;;;;;2.53;2.08;;;10.20;76.40;;;;;;5013854;28;20055;-55
2022/11/14 11:16:24;;;;;;;3.20;2.17;;;10.20;76.30;;;;;;5016316;28;20151;-60
2022/11/14 11:18:50;;;;;;;1.65;1.55;;;10.30;76.30;;;;;;5017475;28;20493;-59
2022/11/14 11:21:20;;;;;;;3.70;1.95;;;10.30;76.20;;;;;;5019208;28;20033;-59
2022/11/14 11:23:54;;;;;;;3.60;2.10;;;10.20;76.20;;;;;;5010959;28;20156;-60
2022/11/14 11:26:29;;;;;;;1.73;1.63;;;10.30;76.30;;;;;;5013689;28;20061;-58
2022/11/14 11:29:04;;;;;;;2.55;1.85;;;10.30;76.40;;;;;;5008957;28;20567;-59
2022/11/14 11:31:49;;;;;;;2.42;1.98;;;10.30;76.20;;;;;;5011630;28;20145;-60
2022/11/14 11:34:21;;;;;;;2.45;2.00;;;10.30;76.20;;;;;;5004062;28;20957;-59
2022/11/14 11:36:50;;;;;;;;;;;10.30;76.20;;;;;;5012331;28;20037;-59
2022/11/14 11:39:32;;;;;;;1.85;1.48;;;10.30;75.80;;;;;;5010250;28;19917;-60
2022/11/14 11:42:05;;;;;;;2.03;1.83;;;10.30;76.20;;;;;;5003738;28;20033;-61
2022/11/14 11:44:36;;;;;;;1.85;1.75;;;10.30;76.20;;;;;;5002815;28;20033;-60
2022/11/14 11:47:04;;;;;;;;;;;10.30;76.40;;;;;;5012010;28;20122;-57
2022/11/14 11:49:36;;;;;;;1.60;1.50;;;10.30;76.10;;;;;;5006731;28;19917;-59
2022/11/14 11:52:11;;;;;;;2.28;1.77;;;10.40;76.40;;;;;;5002110;28;20033;-59
2022/11/14 11:55:13;;;;;;;2.15;1.88;;;10.40;76.50;;;;;;5009493;28;20037;-59
2022/11/14 11:57:46;;;;;;;2.47;2.15;;;10.40;76.10;;;;;;5015256;28;20031;-58
2022/11/14 12:00:22;;;;;;;2.97;1.58;;;10.40;76.30;;;;;;5009915;28;20025;-59
2022/11/14 12:02:49;;;;;;;1.95;1.75;;;10.40;76.10;;;;;;5015855;28;20044;-60
2022/11/14 12:05:26;;;;;;;2.15;1.90;;;10.40;76.00;;;;;;5012063;28;20018;-60
2022/11/14 12:08:03;;;;;;;1.83;1.73;;;10.40;75.90;;;;;;5003608;28;20049;-59
2022/11/14 12:10:32;;;;;;;1.63;1.52;;;10.40;75.70;;;;;;5008938;28;20034;-58
2022/11/14 12:13:12;;;;;;;1.88;1.65;;;10.40;75.80;;;;;;5001390;28;20033;-59
2022/11/14 12:15:50;;;;;;;1.70;1.60;;;10.40;76.30;;;;;;5005749;28;20063;-59
2022/11/14 12:18:53;;;;;;;1.90;1.80;;;10.40;75.50;;;;;;5008429;28;20038;-59
2022/11/14 12:21:43;;;;;;;1.63;1.52;;;10.40;75.60;;;;;;5000200;28;20087;-61
2022/11/14 12:24:31;;;;;;;2.35;1.88;;;10.40;75.50;;;;;;5005928;28;20421;-59
2022/11/14 12:27:33;;;;;;;1.80;1.70;;;10.40;75.70;;;;;;5001764;28;20148;-61
2022/11/14 12:30:10;;;;;;;3.15;2.00;;;10.40;75.50;;;;;;4998930;28;20137;-58
2022/11/14 12:32:51;;;;;;;2.42;1.85;;;10.40;75.50;;;;;;4998487;28;20091;-60
2022/11/14 12:35:23;;;;;;;2.20;2.00;;;10.40;75.40;;;;;;5005424;28;20068;-61
2022/11/14 12:37:51;;;;;;;2.65;1.92;;;10.40;75.50;;;;;;5006296;28;20033;-61
2022/11/14 12:40:33;;;;;;;2.20;2.00;;;10.50;75.60;;;;;;5013119;28;20038;-58
2022/11/14 12:43:00;;;;;;;2.63;1.80;;;10.50;75.60;;;;;;5005195;28;20041;-60
2022/11/14 12:45:35;;;;;;;1.95;1.75;;;10.50;75.50;;;;;;4995534;28;20461;-61
2022/11/14 12:48:27;;;;;;;2.78;2.10;;;10.50;75.60;;;;;;5002347;28;20038;-60
2022/11/14 12:50:54;;;;;;;2.00;1.80;;;10.50;75.60;;;;;;5001279;28;20042;-59
2022/11/14 12:53:38;;;;;;;1.75;1.65;;;10.50;75.60;;;;;;5010462;28;20065;-59
2022/11/14 12:56:43;;;;;;;1.80;1.70;;;10.50;75.50;;;;;;5011733;28;20095;-61
2022/11/14 12:59:31;;;;;;;1.55;1.45;;;10.50;75.50;;;;;;5004067;28;20033;-59
2022/11/14 13:02:30;;;;;;;1.90;1.70;;;10.50;75.70;;;;;;5010074;28;20047;-60
2022/11/14 13:05:37;;;;;;;1.60;1.50;;;10.50;75.60;;;;;;4994150;28;20034;-62
2022/11/14 13:08:15;;;;;;;2.47;1.80;;;10.50;75.60;;;;;;4995413;28;20056;-62
2022/11/14 13:10:41;;;;;;;2.45;1.70;;;10.50;75.70;;;;;;5002457;28;20464;-59
2022/11/14 13:22:15;;;;;;;1.92;1.83;;;10.40;75.60;;;;;;4997000;28;20048;-61